Eagle Lake, Minnesota
Current Conditions -  °F | °C
As of 12:15 AM on Wednesday 22 Oct 2014 (Local Time) from KMKT Reporting Station
Clear Clear  
Wind Chill: 40°   Ceiling: Unl
Heat Index: 46°   Visibility: 10mi
Dew Point: 36°   Wind: 15mph
Humidity: 66%   Direction: 140°SE
Pressure: 30.14"   Gusts: NA
Location:  44.16°N, 93.88°W
Report Text: KMKT 220515Z AUTO 14013KT 10SM CLR 08/02 A3014 RMK AO1
Loading
Personal Weather Stations






























Interactive Weather Map
Tropical Storm Tracking
New forecast layout! Learn more

10-Day Weather Forecast

Advertisements
Track Severe Weather on mobile